Time;durP1;ratioP1;P1;durP2;ratioP2;P2;SDS_P1;SDS_P2;PMS_P1;PMS_P2;Temp;Humidity;BMP_temperature;BMP_pressure;BME280_temperature;BME280_humidity;BME280_pressure;Samples;Min_cycle;Max_cycle;Signal;HPM_P1;HPM_P2
2022/11/19 00:00:45;;;;;;;2.75;1.63;;;;;;;;;;5012875;28;20053;-67
2022/11/19 00:03:13;;;;;;;2.67;1.60;;;;;;;;;;5012779;28;20085;-67
2022/11/19 00:05:44;;;;;;;3.17;1.65;;;;;;;;;;5012710;28;20140;-67
2022/11/19 00:08:12;;;;;;;3.47;1.23;;;;;;;;;;5012347;28;20041;-67
2022/11/19 00:10:39;;;;;;;2.53;1.40;;;;;;;;;;5012649;28;20500;-67
2022/11/19 00:13:06;;;;;;;2.47;1.83;;;;;;;;;;5012759;28;20050;-68
2022/11/19 00:15:34;;;;;;;3.35;1.30;;;;;;;;;;5012683;28;20532;-67
2022/11/19 00:18:01;;;;;;;1.50;1.00;;;;;;;;;;5012627;28;20480;-69
2022/11/19 00:20:28;;;;;;;2.15;1.10;;;;;;;;;;5012972;28;20081;-68
2022/11/19 00:22:56;;;;;;;3.33;1.30;;;;;;;;;;5012782;28;20137;-66
2022/11/19 00:25:23;;;;;;;1.65;1.40;;;;;;;;;;5012460;28;20180;-66
2022/11/19 00:27:51;;;;;;;1.60;1.27;;;;;;;;;;5011931;28;20081;-66
2022/11/19 00:30:18;;;;;;;2.65;1.77;;;;;;;;;;5012855;28;20606;-65
2022/11/19 00:33:05;;;;;;;2.60;1.40;;;;;;;;;;5012633;28;20056;-65
2022/11/19 00:35:31;;;;;;;2.10;1.40;;;;;;;;;;5012122;28;20085;-66
2022/11/19 00:37:58;;;;;;;3.10;1.30;;;;;;;;;;5011778;28;20085;-67
2022/11/19 00:40:24;;;;;;;3.65;1.50;;;;;;;;;;5012251;28;20054;-67
2022/11/19 00:45:36;;;;;;;3.63;1.60;;;;;;;;;;5016287;28;20523;-67
2022/11/19 00:48:03;;;;;;;1.67;1.40;;;;;;;;;;5011864;28;20520;-67
2022/11/19 00:50:29;;;;;;;4.13;1.50;;;;;;;;;;5012163;28;20204;-67
2022/11/19 00:52:56;;;;;;;1.88;1.50;;;;;;;;;;5012243;28;20397;-67
2022/11/19 00:55:22;;;;;;;5.15;1.80;;;;;;;;;;5011910;28;20086;-67
2022/11/19 00:57:49;;;;;;;2.25;1.40;;;;;;;;;;5011422;28;20085;-67
2022/11/19 01:00:16;;;;;;;2.30;1.80;;;;;;;;;;5011790;28;20535;-66
2022/11/19 01:02:42;;;;;;;4.68;1.88;;;;;;;;;;5012123;28;20096;-66
2022/11/19 01:05:09;;;;;;;2.38;1.30;;;;;;;;;;5011922;28;20085;-67
2022/11/19 01:07:35;;;;;;;6.28;1.42;;;;;;;;;;5011972;28;20084;-66
2022/11/19 01:10:02;;;;;;;3.33;1.30;;;;;;;;;;5011137;28;20052;-67
2022/11/19 01:12:29;;;;;;;1.45;1.15;;;;;;;;;;5025974;28;20476;-66
2022/11/19 01:14:55;;;;;;;1.52;1.30;;;;;;;;;;5031478;28;20088;-66
2022/11/19 01:17:22;;;;;;;2.10;1.25;;;;;;;;;;5031567;28;20136;-66
2022/11/19 01:19:49;;;;;;;5.88;1.40;;;;;;;;;;5030552;28;20508;-66
2022/11/19 01:22:15;;;;;;;3.17;1.73;;;;;;;;;;5031486;28;20116;-66
2022/11/19 01:24:42;;;;;;;2.65;2.00;;;;;;;;;;5031441;28;20088;-66
2022/11/19 01:27:08;;;;;;;4.10;1.70;;;;;;;;;;5031431;28;20054;-66
2022/11/19 01:29:35;;;;;;;2.63;1.77;;;;;;;;;;5030737;28;20092;-66
2022/11/19 01:32:01;;;;;;;3.50;1.90;;;;;;;;;;5030314;28;20527;-67
2022/11/19 01:34:28;;;;;;;2.45;1.70;;;;;;;;;;5031141;28;20554;-66
2022/11/19 01:36:55;;;;;;;3.63;2.05;;;;;;;;;;5030487;28;20476;-66
2022/11/19 01:39:21;;;;;;;1.60;1.50;;;;;;;;;;5030663;28;20523;-66
2022/11/19 01:41:48;;;;;;;2.08;1.52;;;;;;;;;;5015692;28;20089;-66
2022/11/19 01:45:05;;;;;;;1.73;1.50;;;;;;;;;;5011813;28;20046;-67
2022/11/19 01:47:32;;;;;;;1.52;1.27;;;;;;;;;;4978466;28;20042;-67
2022/11/19 01:49:58;;;;;;;2.28;1.10;;;;;;;;;;4995364;28;20134;-66
2022/11/19 01:52:25;;;;;;;4.03;1.45;;;;;;;;;;4994447;28;20081;-66
2022/11/19 01:54:52;;;;;;;2.10;1.65;;;;;;;;;;4994023;28;20085;-66
2022/11/19 01:57:19;;;;;;;3.20;1.20;;;;;;;;;;4977930;28;20085;-66
2022/11/19 01:59:46;;;;;;;3.08;1.58;;;;;;;;;;5010623;28;20133;-66
2022/11/19 02:02:13;;;;;;;1.30;1.13;;;;;;;;;;4994033;28;20084;-66
2022/11/19 02:04:40;;;;;;;1.85;1.17;;;;;;;;;;5019434;28;20464;-66
2022/11/19 02:07:06;;;;;;;1.00;0.90;;;;;;;;;;5025009;28;20133;-67
2022/11/19 02:09:33;;;;;;;1.77;1.00;;;;;;;;;;4993408;28;20389;-66
2022/11/19 02:12:14;;;;;;;1.58;1.23;;;;;;;;;;5011456;28;20081;-66
2022/11/19 02:14:56;;;;;;;2.55;0.88;;;;;;;;;;5011136;28;20082;-66
2022/11/19 02:17:44;;;;;;;2.70;1.40;;;;;;;;;;5011558;28;20401;-66
2022/11/19 02:20:39;;;;;;;2.65;1.15;;;;;;;;;;5010643;28;20078;-66
2022/11/19 02:23:21;;;;;;;1.13;0.73;;;;;;;;;;4994638;28;20470;-67
2022/11/19 02:26:20;;;;;;;1.30;0.80;;;;;;;;;;5033399;28;20053;-66
2022/11/19 02:28:49;;;;;;;2.47;1.13;;;;;;;;;;5012539;28;20081;-66
2022/11/19 02:31:34;;;;;;;1.85;1.00;;;;;;;;;;5017003;28;20084;-66
2022/11/19 02:34:10;;;;;;;2.75;0.90;;;;;;;;;;5033859;28;20107;-66
2022/11/19 02:36:46;;;;;;;4.50;1.17;;;;;;;;;;5024968;28;20130;-66
2022/11/19 02:39:19;;;;;;;2.65;0.93;;;;;;;;;;5016608;28;20312;-66
2022/11/19 02:41:48;;;;;;;;;;;;;;;;;;5017446;28;20045;-66
2022/11/19 02:47:17;;;;;;;2.97;1.05;;;;;;;;;;5034173;28;20401;-66
2022/11/19 02:49:44;;;;;;;2.53;1.07;;;;;;;;;;5011573;28;20096;-65
2022/11/19 02:52:13;;;;;;;1.13;0.93;;;;;;;;;;4980826;28;20567;-65
2022/11/19 02:54:39;;;;;;;2.30;1.20;;;;;;;;;;4980848;28;20092;-65
2022/11/19 02:57:09;;;;;;;1.00;0.90;;;;;;;;;;5014427;28;20046;-66
2022/11/19 03:05:31;;;;;;;2.92;1.10;;;;;;;;;;5004697;28;20133;-65
2022/11/19 03:07:57;;;;;;;2.63;1.25;;;;;;;;;;4996461;28;20420;-65
2022/11/19 03:10:26;;;;;;;2.38;1.23;;;;;;;;;;4996532;28;20058;-67
2022/11/19 03:12:54;;;;;;;2.22;1.00;;;;;;;;;;4996650;28;20049;-66
2022/11/19 03:18:21;;;;;;;2.90;1.08;;;;;;;;;;4999594;28;20129;-66
2022/11/19 03:21:13;;;;;;;1.70;1.02;;;;;;;;;;5013783;28;20088;-65
2022/11/19 03:23:44;;;;;;;2.30;0.90;;;;;;;;;;5014104;28;20128;-66
2022/11/19 03:26:25;;;;;;;1.67;1.25;;;;;;;;;;4996547;28;20489;-66
2022/11/19 03:28:52;;;;;;;1.38;0.93;;;;;;;;;;5013068;28;20120;-66
2022/11/19 03:31:19;;;;;;;2.35;1.30;;;;;;;;;;5013690;28;20054;-66
2022/11/19 03:33:46;;;;;;;1.80;1.08;;;;;;;;;;5003613;28;20168;-65
2022/11/19 03:36:15;;;;;;;1.67;1.10;;;;;;;;;;4996217;28;20112;-67
2022/11/19 03:38:43;;;;;;;3.35;1.10;;;;;;;;;;4995664;28;20073;-66
2022/11/19 03:41:11;;;;;;;1.65;1.52;;;;;;;;;;4995963;28;20050;-66
2022/11/19 03:43:38;;;;;;;2.47;0.80;;;;;;;;;;4995995;28;20050;-67
2022/11/19 03:46:06;;;;;;;1.42;0.90;;;;;;;;;;4995868;28;20054;-66
2022/11/19 03:48:33;;;;;;;1.88;1.00;;;;;;;;;;4979515;28;20551;-67
2022/11/19 03:51:07;;;;;;;1.45;1.25;;;;;;;;;;5013653;28;20111;-66
2022/11/19 03:53:33;;;;;;;1.27;1.10;;;;;;;;;;4996665;28;20046;-66
2022/11/19 03:56:02;;;;;;;1.48;1.13;;;;;;;;;;5013254;28;20097;-65
2022/11/19 03:58:35;;;;;;;1.75;1.25;;;;;;;;;;4979056;28;20476;-66
2022/11/19 04:01:01;;;;;;;;;;;;;;;;;;4996797;28;20064;-66
2022/11/19 04:03:28;;;;;;;2.40;1.30;;;;;;;;;;5013124;28;19959;-65
2022/11/19 04:05:55;;;;;;;4.18;1.23;;;;;;;;;;5017416;28;20145;-65
2022/11/19 04:08:21;;;;;;;2.88;1.17;;;;;;;;;;5012919;28;20468;-66
2022/11/19 04:10:48;;;;;;;2.33;1.30;;;;;;;;;;5012861;28;20127;-66
2022/11/19 04:13:14;;;;;;;2.58;1.42;;;;;;;;;;5012930;28;20473;-66
2022/11/19 04:15:41;;;;;;;3.42;1.70;;;;;;;;;;5012997;28;20093;-65
2022/11/19 04:18:08;;;;;;;1.88;1.10;;;;;;;;;;5012631;28;20102;-68
2022/11/19 04:20:34;;;;;;;1.63;0.85;;;;;;;;;;5012684;28;20077;-67
2022/11/19 04:23:01;;;;;;;2.42;1.10;;;;;;;;;;5012742;28;20054;-66
2022/11/19 04:25:27;;;;;;;1.45;1.05;;;;;;;;;;4995229;28;20068;-68
2022/11/19 04:27:54;;;;;;;3.38;1.40;;;;;;;;;;5012055;28;20479;-68
2022/11/19 04:30:21;;;;;;;2.33;1.00;;;;;;;;;;5012663;28;20042;-67
2022/11/19 04:32:47;;;;;;;1.88;1.25;;;;;;;;;;5032217;28;20136;-66
2022/11/19 04:35:17;;;;;;;1.75;1.02;;;;;;;;;;5032080;28;20045;-68
2022/11/19 04:37:43;;;;;;;1.63;1.10;;;;;;;;;;5032177;28;20480;-67
2022/11/19 04:40:11;;;;;;;1.98;1.20;;;;;;;;;;5031656;28;20128;-67
2022/11/19 04:42:37;;;;;;;2.30;1.10;;;;;;;;;;5032665;28;20072;-69
2022/11/19 04:45:04;;;;;;;1.40;1.10;;;;;;;;;;5030257;28;20095;-68
2022/11/19 04:47:31;;;;;;;2.30;1.40;;;;;;;;;;5012189;28;20148;-68
2022/11/19 04:49:58;;;;;;;3.08;1.02;;;;;;;;;;5012059;28;20390;-69
2022/11/19 04:52:24;;;;;;;1.52;1.27;;;;;;;;;;5012336;28;20104;-67
2022/11/19 04:54:51;;;;;;;1.02;0.85;;;;;;;;;;5012419;28;20132;-68
2022/11/19 04:57:17;;;;;;;0.93;0.90;;;;;;;;;;5012290;28;20049;-69
2022/11/19 04:59:44;;;;;;;2.03;1.30;;;;;;;;;;5011712;28;20048;-69
2022/11/19 05:02:11;;;;;;;3.30;1.15;;;;;;;;;;5012355;28;20054;-67
2022/11/19 05:04:37;;;;;;;2.33;1.23;;;;;;;;;;5012157;28;20524;-68
2022/11/19 05:07:04;;;;;;;1.70;1.30;;;;;;;;;;5012327;28;20100;-69
2022/11/19 05:09:30;;;;;;;3.03;1.25;;;;;;;;;;5011373;28;20060;-68
2022/11/19 05:11:57;;;;;;;3.30;1.38;;;;;;;;;;5028569;28;20132;-67
2022/11/19 05:14:23;;;;;;;2.63;1.77;;;;;;;;;;5032235;28;20424;-69
2022/11/19 05:16:56;;;;;;;2.15;1.55;;;;;;;;;;5031758;28;20053;-69
2022/11/19 05:19:22;;;;;;;3.80;1.60;;;;;;;;;;5031068;28;20103;-69
2022/11/19 05:21:49;;;;;;;2.90;1.63;;;;;;;;;;5031800;28;20084;-69
2022/11/19 05:24:15;;;;;;;1.88;1.40;;;;;;;;;;5031408;28;20547;-68
2022/11/19 05:26:42;;;;;;;2.78;1.42;;;;;;;;;;5031148;28;20053;-68
2022/11/19 05:29:08;;;;;;;1.95;1.50;;;;;;;;;;5031205;28;20128;-69
2022/11/19 05:31:35;;;;;;;2.25;1.67;;;;;;;;;;5031703;28;20487;-69
2022/11/19 05:34:02;;;;;;;3.20;1.88;;;;;;;;;;5031342;28;20049;-68
2022/11/19 05:36:28;;;;;;;3.78;1.98;;;;;;;;;;5031542;28;20054;-68
2022/11/19 05:38:55;;;;;;;1.80;1.60;;;;;;;;;;5029868;28;20081;-69
2022/11/19 05:41:21;;;;;;;3.28;1.48;;;;;;;;;;5031459;28;20060;-68
2022/11/19 05:43:48;;;;;;;1.80;1.40;;;;;;;;;;5031590;28;20084;-68
2022/11/19 05:46:15;;;;;;;2.60;1.80;;;;;;;;;;5031555;28;20144;-69
2022/11/19 05:48:41;;;;;;;1.95;1.50;;;;;;;;;;5030753;28;20100;-69
2022/11/19 05:51:12;;;;;;;1.88;1.38;;;;;;;;;;5013801;28;20611;-68
2022/11/19 05:53:39;;;;;;;2.47;1.42;;;;;;;;;;5017159;28;20089;-69
2022/11/19 05:56:06;;;;;;;3.40;1.45;;;;;;;;;;5011881;28;20428;-68
2022/11/19 05:58:32;;;;;;;5.28;1.83;;;;;;;;;;5014325;28;20100;-68
2022/11/19 06:00:59;;;;;;;4.43;2.13;;;;;;;;;;5023088;28;20092;-69
2022/11/19 06:03:26;;;;;;;3.75;1.60;;;;;;;;;;5015608;28;20089;-68
2022/11/19 06:05:52;;;;;;;2.58;1.70;;;;;;;;;;5015167;28;20085;-68
2022/11/19 06:08:19;;;;;;;2.75;2.03;;;;;;;;;;5014828;28;20046;-67
2022/11/19 06:10:46;;;;;;;2.45;1.92;;;;;;;;;;5027502;28;20049;-69
2022/11/19 06:13:12;;;;;;;2.05;1.80;;;;;;;;;;5033510;28;20092;-67
2022/11/19 06:15:39;;;;;;;3.45;1.77;;;;;;;;;;5034724;28;20053;-68
2022/11/19 06:18:05;;;;;;;2.83;1.50;;;;;;;;;;5036936;28;20088;-68
2022/11/19 06:20:32;;;;;;;2.78;1.63;;;;;;;;;;5036397;28;20209;-69
2022/11/19 06:22:59;;;;;;;2.15;1.80;;;;;;;;;;5034909;28;20084;-68
2022/11/19 06:25:25;;;;;;;3.05;2.13;;;;;;;;;;5034891;28;20092;-69
2022/11/19 06:27:52;;;;;;;2.97;1.90;;;;;;;;;;5044645;28;20103;-68
2022/11/19 06:30:18;;;;;;;4.32;1.50;;;;;;;;;;5050423;28;20488;-67
2022/11/19 06:32:45;;;;;;;2.22;1.40;;;;;;;;;;5039719;28;20045;-68
2022/11/19 06:35:12;;;;;;;2.47;1.70;;;;;;;;;;5034381;28;20571;-68
2022/11/19 06:37:40;;;;;;;2.05;1.80;;;;;;;;;;5034138;28;20064;-68
2022/11/19 06:40:07;;;;;;;2.95;2.05;;;;;;;;;;5016357;28;20045;-69
2022/11/19 06:42:36;;;;;;;3.35;2.03;;;;;;;;;;5026255;28;20087;-68
2022/11/19 06:45:04;;;;;;;2.08;1.90;;;;;;;;;;5034685;28;20050;-69
2022/11/19 06:47:31;;;;;;;1.83;1.50;;;;;;;;;;5034481;28;20081;-68
2022/11/19 06:49:58;;;;;;;4.32;1.90;;;;;;;;;;5015946;28;20085;-67
2022/11/19 06:52:25;;;;;;;1.58;1.48;;;;;;;;;;5034049;28;20455;-66
2022/11/19 06:54:51;;;;;;;4.63;1.52;;;;;;;;;;5014280;28;20092;-66
2022/11/19 06:57:18;;;;;;;2.08;1.60;;;;;;;;;;5014255;28;20468;-66
2022/11/19 06:59:44;;;;;;;2.65;1.65;;;;;;;;;;5013633;28;20082;-67
2022/11/19 07:02:11;;;;;;;2.83;1.55;;;;;;;;;;5014294;28;20464;-67
2022/11/19 07:04:38;;;;;;;3.00;1.58;;;;;;;;;;5014099;28;20054;-66
2022/11/19 07:07:04;;;;;;;2.58;1.63;;;;;;;;;;5014365;28;20054;-67
2022/11/19 07:09:31;;;;;;;2.42;1.95;;;;;;;;;;5012835;28;20058;-68
2022/11/19 07:11:58;;;;;;;3.30;2.25;;;;;;;;;;5013936;28;20141;-67
2022/11/19 07:14:24;;;;;;;2.65;1.58;;;;;;;;;;5013939;28;20472;-67
2022/11/19 07:16:51;;;;;;;3.10;1.60;;;;;;;;;;5013880;28;20050;-67
2022/11/19 07:19:18;;;;;;;2.83;1.88;;;;;;;;;;5013495;28;20057;-67
2022/11/19 07:21:45;;;;;;;2.78;1.85;;;;;;;;;;5015559;28;20523;-67
2022/11/19 07:24:15;;;;;;;2.78;1.70;;;;;;;;;;5031415;28;20084;-68
2022/11/19 07:26:42;;;;;;;2.83;1.60;;;;;;;;;;5010076;28;20507;-67
2022/11/19 07:29:10;;;;;;;1.52;1.40;;;;;;;;;;5027698;28;20148;-67
2022/11/19 07:31:36;;;;;;;1.98;1.77;;;;;;;;;;5028989;28;20124;-65
2022/11/19 07:34:09;;;;;;;3.50;1.90;;;;;;;;;;5028799;28;20049;-67
2022/11/19 07:36:36;;;;;;;3.05;2.05;;;;;;;;;;5024985;28;20091;-67
2022/11/19 07:39:04;;;;;;;4.20;1.80;;;;;;;;;;5023366;28;20091;-67
2022/11/19 07:44:16;;;;;;;1.90;1.70;;;;;;;;;;5028698;28;20566;-67
2022/11/19 07:46:42;;;;;;;1.70;1.60;;;;;;;;;;5029707;28;20045;-66
2022/11/19 07:49:09;;;;;;;1.83;1.73;;;;;;;;;;5028437;28;20084;-66
2022/11/19 07:51:35;;;;;;;2.95;1.75;;;;;;;;;;5025162;28;20572;-68
2022/11/19 07:54:02;;;;;;;2.35;2.00;;;;;;;;;;5026476;28;20093;-68
2022/11/19 07:56:29;;;;;;;4.07;2.83;;;;;;;;;;5012039;28;20093;-66
2022/11/19 07:58:58;;;;;;;2.90;2.17;;;;;;;;;;5028093;28;20133;-68
2022/11/19 08:01:25;;;;;;;2.50;2.30;;;;;;;;;;5010303;28;20076;-68
2022/11/19 08:03:52;;;;;;;2.83;2.40;;;;;;;;;;5028659;28;20100;-68
2022/11/19 08:06:23;;;;;;;3.40;2.38;;;;;;;;;;5028779;28;20080;-68
2022/11/19 08:08:50;;;;;;;3.00;1.83;;;;;;;;;;5027609;28;20100;-67
2022/11/19 08:11:17;;;;;;;3.15;2.08;;;;;;;;;;5028896;28;20041;-68
2022/11/19 08:13:43;;;;;;;2.40;1.77;;;;;;;;;;5028381;28;20075;-67
2022/11/19 08:19:06;;;;;;;;;;;;;;;;;;4990594;28;20500;-65
2022/11/19 08:21:33;;;;;;;1.65;1.33;;;;;;;;;;5027431;28;19925;-68
2022/11/19 08:24:00;;;;;;;2.20;1.40;;;;;;;;;;5028639;28;20092;-67
2022/11/19 08:26:26;;;;;;;2.38;1.85;;;;;;;;;;5028102;28;20053;-68
2022/11/19 08:28:53;;;;;;;2.42;1.73;;;;;;;;;;5027423;28;20053;-68
2022/11/19 08:31:20;;;;;;;4.72;2.60;;;;;;;;;;5028396;28;20080;-67
2022/11/19 08:33:46;;;;;;;5.68;2.35;;;;;;;;;;5030007;28;20866;-69
2022/11/19 08:36:13;;;;;;;2.95;2.20;;;;;;;;;;5028391;28;20103;-69
2022/11/19 08:38:39;;;;;;;3.00;2.50;;;;;;;;;;5029522;28;20115;-69
2022/11/19 08:43:51;;;;;;;2.30;1.85;;;;;;;;;;5019718;28;20060;-71
2022/11/19 08:46:17;;;;;;;3.80;2.53;;;;;;;;;;5040894;28;20068;-73
2022/11/19 08:48:44;;;;;;;4.05;2.30;;;;;;;;;;5037329;28;20497;-67
2022/11/19 08:51:13;;;;;;;5.35;2.45;;;;;;;;;;5029904;28;20077;-75
2022/11/19 08:53:40;;;;;;;4.72;2.30;;;;;;;;;;5017043;28;20052;-71
2022/11/19 08:56:07;;;;;;;6.63;2.63;;;;;;;;;;5028492;28;20084;-70
2022/11/19 08:58:34;;;;;;;10.15;4.70;;;;;;;;;;5028431;28;20080;-73
2022/11/19 09:01:12;;;;;;;22.95;8.90;;;;;;;;;;5028104;28;20057;-71
2022/11/19 09:03:39;;;;;;;10.60;4.53;;;;;;;;;;5025405;28;20049;-69
2022/11/19 09:06:06;;;;;;;3.90;2.20;;;;;;;;;;5027970;28;20570;-76
2022/11/19 09:08:33;;;;;;;3.40;2.00;;;;;;;;;;5012684;28;20088;-77
2022/11/19 09:11:20;;;;;;;3.05;1.73;;;;;;;;;;4997406;28;20076;-77
2022/11/19 09:13:47;;;;;;;3.45;1.60;;;;;;;;;;5002399;28;20125;-77
2022/11/19 09:16:14;;;;;;;2.78;1.23;;;;;;;;;;5029838;28;20073;-76
2022/11/19 09:18:41;;;;;;;1.85;1.13;;;;;;;;;;5009800;28;20080;-67
2022/11/19 09:21:09;;;;;;;2.08;1.60;;;;;;;;;;5029138;28;20049;-67
2022/11/19 09:23:36;;;;;;;2.67;1.77;;;;;;;;;;5026518;28;20125;-68
2022/11/19 09:26:05;;;;;;;2.15;1.52;;;;;;;;;;5029896;28;20053;-67
2022/11/19 09:28:32;;;;;;;1.58;1.17;;;;;;;;;;5025014;28;20051;-67
2022/11/19 09:31:11;;;;;;;2.47;1.35;;;;;;;;;;5029620;28;20092;-67
2022/11/19 09:33:40;;;;;;;2.25;1.48;;;;;;;;;;5029557;28;20123;-68
2022/11/19 09:36:09;;;;;;;2.08;1.77;;;;;;;;;;5033081;28;20503;-68
2022/11/19 09:38:35;;;;;;;1.98;1.20;;;;;;;;;;5032740;28;20111;-68
2022/11/19 09:41:27;;;;;;;1.88;1.23;;;;;;;;;;5032127;28;20042;-67
2022/11/19 09:44:06;;;;;;;3.17;1.58;;;;;;;;;;5033608;28;20046;-68
2022/11/19 09:46:38;;;;;;;5.13;2.25;;;;;;;;;;5001240;28;20420;-67
2022/11/19 09:49:11;;;;;;;3.47;2.33;;;;;;;;;;5030014;28;20107;-68
2022/11/19 09:51:38;;;;;;;3.53;1.77;;;;;;;;;;5014569;28;20133;-68
2022/11/19 09:54:06;;;;;;;1.40;0.98;;;;;;;;;;5015739;28;20049;-68
2022/11/19 09:56:40;;;;;;;2.47;1.55;;;;;;;;;;5014197;28;20095;-68
2022/11/19 09:59:27;;;;;;;2.60;1.60;;;;;;;;;;5032255;28;20045;-68
2022/11/19 10:01:54;;;;;;;3.22;0.98;;;;;;;;;;5030839;28;20073;-68
2022/11/19 10:04:22;;;;;;;1.40;1.30;;;;;;;;;;5014456;28;20073;-66
2022/11/19 10:07:05;;;;;;;1.48;1.20;;;;;;;;;;5032899;28;20091;-67
2022/11/19 10:09:35;;;;;;;3.50;1.80;;;;;;;;;;5029927;28;20520;-68
2022/11/19 10:12:19;;;;;;;1.67;1.58;;;;;;;;;;5013894;28;20088;-68
2022/11/19 10:15:14;;;;;;;6.18;3.35;;;;;;;;;;5014910;28;20099;-69
2022/11/19 10:17:56;;;;;;;2.88;2.17;;;;;;;;;;5002563;28;20064;-67
2022/11/19 10:20:31;;;;;;;3.53;1.60;;;;;;;;;;5032412;28;20166;-67
2022/11/19 10:23:09;;;;;;;1.63;1.10;;;;;;;;;;5029658;28;20089;-68
2022/11/19 10:25:42;;;;;;;1.60;1.10;;;;;;;;;;5031382;28;20124;-67
2022/11/19 10:28:21;;;;;;;3.85;1.30;;;;;;;;;;5014255;28;20132;-66
2022/11/19 10:30:49;;;;;;;3.08;1.30;;;;;;;;;;5013254;28;20045;-68
2022/11/19 10:33:39;;;;;;;1.88;0.90;;;;;;;;;;5031021;28;20049;-67
2022/11/19 10:36:08;;;;;;;3.17;1.00;;;;;;;;;;4999987;28;20077;-68
2022/11/19 10:38:45;;;;;;;1.88;1.05;;;;;;;;;;5014010;28;20171;-66
2022/11/19 10:41:21;;;;;;;3.60;1.35;;;;;;;;;;5012186;28;20109;-68
2022/11/19 10:43:51;;;;;;;1.65;1.08;;;;;;;;;;5013920;28;20057;-66
2022/11/19 10:46:21;;;;;;;4.18;1.30;;;;;;;;;;5014644;28;20061;-66
2022/11/19 10:48:55;;;;;;;1.65;0.90;;;;;;;;;;4996702;28;20133;-67
2022/11/19 10:51:23;;;;;;;0.93;0.82;;;;;;;;;;4998414;28;20156;-68
2022/11/19 10:53:53;;;;;;;3.80;1.50;;;;;;;;;;5014180;28;20091;-68
2022/11/19 10:56:22;;;;;;;4.60;2.33;;;;;;;;;;5031606;28;20088;-65
2022/11/19 10:59:04;;;;;;;3.03;1.75;;;;;;;;;;4997689;28;20137;-67
2022/11/19 11:01:32;;;;;;;3.13;1.87;;;;;;;;;;4998888;28;20492;-66
2022/11/19 11:04:18;;;;;;;1.90;1.05;;;;;;;;;;5029426;28;20045;-68
2022/11/19 11:06:54;;;;;;;4.00;1.45;;;;;;;;;;5002034;28;20091;-67
2022/11/19 11:09:35;;;;;;;2.40;1.42;;;;;;;;;;5024509;28;20049;-66
2022/11/19 11:15:23;;;;;;;2.92;1.48;;;;;;;;;;5026600;28;20081;-77
2022/11/19 11:18:06;;;;;;;3.70;2.40;;;;;;;;;;5027549;28;20096;-73
2022/11/19 11:20:35;;;;;;;4.18;1.65;;;;;;;;;;5001439;28;20128;-72
2022/11/19 11:23:19;;;;;;;3.15;2.40;;;;;;;;;;5012664;28;20393;-73
2022/11/19 11:26:10;;;;;;;3.75;2.17;;;;;;;;;;4990954;28;20096;-72
2022/11/19 11:28:59;;;;;;;3.63;2.20;;;;;;;;;;5014715;28;20080;-73
2022/11/19 11:31:35;;;;;;;7.35;2.13;;;;;;;;;;5029492;28;20084;-73
2022/11/19 11:34:02;;;;;;;3.38;1.60;;;;;;;;;;5029925;28;20081;-73
2022/11/19 11:36:31;;;;;;;2.92;1.55;;;;;;;;;;5029707;28;20049;-67
2022/11/19 11:38:59;;;;;;;5.43;1.73;;;;;;;;;;4996357;28;20065;-75
2022/11/19 11:41:32;;;;;;;3.63;1.48;;;;;;;;;;4984574;28;20053;-68
2022/11/19 11:44:46;;;;;;;4.38;1.90;;;;;;;;;;5027529;28;20140;-76
2022/11/19 11:47:35;;;;;;;3.70;1.70;;;;;;;;;;4995375;28;20053;-76
2022/11/19 11:50:11;;;;;;;4.60;1.48;;;;;;;;;;4999759;28;20140;-76
2022/11/19 11:52:43;;;;;;;3.35;1.65;;;;;;;;;;5028684;28;20425;-75
2022/11/19 11:55:22;;;;;;;1.85;1.52;;;;;;;;;;5012121;28;20092;-75
2022/11/19 11:58:14;;;;;;;3.03;1.40;;;;;;;;;;5027231;28;20484;-76
2022/11/19 12:00:46;;;;;;;3.42;2.00;;;;;;;;;;5030364;28;20056;-71
2022/11/19 12:03:17;;;;;;;2.97;1.95;;;;;;;;;;5028617;28;20102;-74
2022/11/19 12:06:03;;;;;;;3.42;2.22;;;;;;;;;;5036168;28;20029;-74
2022/11/19 12:08:55;;;;;;;3.92;2.00;;;;;;;;;;5027160;28;20061;-73
2022/11/19 12:11:55;;;;;;;2.92;1.55;;;;;;;;;;5028273;28;20061;-79
2022/11/19 12:14:49;;;;;;;2.28;1.30;;;;;;;;;;5023055;28;20107;-74
2022/11/19 12:17:35;;;;;;;3.33;1.20;;;;;;;;;;5026575;28;20072;-74
2022/11/19 12:20:20;;;;;;;2.83;1.30;;;;;;;;;;5025708;28;20057;-73
2022/11/19 12:23:38;;;;;;;3.00;1.77;;;;;;;;;;5029038;28;20390;-74
2022/11/19 12:26:27;;;;;;;4.00;1.65;;;;;;;;;;4987523;28;20076;-74
2022/11/19 12:29:13;;;;;;;3.35;1.80;;;;;;;;;;5027556;28;20046;-77
2022/11/19 12:32:06;;;;;;;4.13;2.00;;;;;;;;;;5024646;28;20496;-71
2022/11/19 12:34:42;;;;;;;3.15;1.88;;;;;;;;;;5009150;28;20126;-72
2022/11/19 12:37:46;;;;;;;5.10;2.63;;;;;;;;;;5028023;28;20088;-76
2022/11/19 12:40:44;;;;;;;3.33;2.08;;;;;;;;;;5028467;28;20509;-73
2022/11/19 12:43:35;;;;;;;6.22;2.92;;;;;;;;;;5008361;28;20045;-72
2022/11/19 12:46:14;;;;;;;4.90;2.15;;;;;;;;;;5024650;28;20531;-73
2022/11/19 12:49:19;;;;;;;3.30;2.03;;;;;;;;;;5022967;28;20057;-74
2022/11/19 12:51:53;;;;;;;4.68;2.90;;;;;;;;;;5011840;28;20045;-76
2022/11/19 12:54:43;;;;;;;3.47;2.83;;;;;;;;;;5028667;28;20083;-73
2022/11/19 12:57:38;;;;;;;3.97;2.40;;;;;;;;;;5033519;28;20436;-68
2022/11/19 13:00:10;;;;;;;4.18;2.25;;;;;;;;;;4998021;28;20111;-67
2022/11/19 13:02:47;;;;;;;3.15;2.20;;;;;;;;;;5012099;28;20500;-67
2022/11/19 13:05:21;;;;;;;3.00;1.90;;;;;;;;;;5011586;28;20091;-67
2022/11/19 13:08:00;;;;;;;3.40;1.90;;;;;;;;;;4996234;28;20123;-71
2022/11/19 13:10:31;;;;;;;2.78;1.80;;;;;;;;;;4996287;28;20069;-67
2022/11/19 13:12:59;;;;;;;3.20;2.22;;;;;;;;;;4996857;28;20488;-67
2022/11/19 13:15:29;;;;;;;3.17;2.25;;;;;;;;;;5011998;28;20085;-69
2022/11/19 13:17:57;;;;;;;4.75;3.17;;;;;;;;;;4995581;28;20107;-69
2022/11/19 13:20:32;;;;;;;6.63;3.75;;;;;;;;;;5029637;28;20072;-68
2022/11/19 13:23:03;;;;;;;6.07;3.85;;;;;;;;;;5012111;28;20488;-68
2022/11/19 13:25:39;;;;;;;10.82;4.47;;;;;;;;;;4988772;28;20459;-67
2022/11/19 13:28:12;;;;;;;7.72;3.70;;;;;;;;;;5011646;28;20079;-67
2022/11/19 13:30:39;;;;;;;6.15;3.00;;;;;;;;;;5011476;28;20131;-68
2022/11/19 13:33:29;;;;;;;7.95;2.88;;;;;;;;;;5012598;28;20077;-68
2022/11/19 13:36:14;;;;;;;6.40;2.60;;;;;;;;;;5011456;28;20119;-67
2022/11/19 13:39:36;;;;;;;2.78;2.10;;;;;;;;;;5011186;28;20100;-68
2022/11/19 13:44:47;;;;;;;4.85;2.97;;;;;;;;;;4963513;28;20078;-68
2022/11/19 13:47:23;;;;;;;5.97;3.25;;;;;;;;;;5007949;28;20448;-67
2022/11/19 13:49:52;;;;;;;4.10;2.88;;;;;;;;;;4995244;28;20049;-68
2022/11/19 13:52:29;;;;;;;6.82;3.75;;;;;;;;;;5029298;28;20095;-68
2022/11/19 13:54:56;;;;;;;6.63;4.03;;;;;;;;;;4997006;28;20148;-68
2022/11/19 13:57:34;;;;;;;6.63;3.65;;;;;;;;;;4996521;28;20092;-69
2022/11/19 14:00:24;;;;;;;6.38;3.17;;;;;;;;;;4995287;28;20531;-69
2022/11/19 14:03:09;;;;;;;4.22;3.17;;;;;;;;;;5012084;28;20093;-69
2022/11/19 14:06:25;;;;;;;3.67;2.38;;;;;;;;;;5027706;28;20077;-67
2022/11/19 14:09:15;;;;;;;2.30;2.10;;;;;;;;;;4997989;28;20087;-67
2022/11/19 14:12:05;;;;;;;4.28;2.40;;;;;;;;;;5029598;28;20132;-68
2022/11/19 14:26:39;;;;;;;2.95;2.60;;;;;;;;;;4999257;28;20045;-68
2022/11/19 14:29:21;;;;;;;4.65;3.00;;;;;;;;;;5029642;28;20045;-69
2022/11/19 14:32:06;;;;;;;6.07;3.20;;;;;;;;;;5032291;28;20053;-68
2022/11/19 14:34:41;;;;;;;4.28;3.35;;;;;;;;;;5030517;28;20085;-67
2022/11/19 14:37:33;;;;;;;4.18;3.10;;;;;;;;;;5014803;28;20080;-68
2022/11/19 14:40:18;;;;;;;6.22;3.42;;;;;;;;;;5030524;28;20045;-68
2022/11/19 14:46:00;;;;;;;5.45;4.00;;;;;;;;;;5029595;28;20042;-68
2022/11/19 14:48:37;;;;;;;8.40;4.70;;;;;;;;;;5032703;28;20099;-67
2022/11/19 14:51:12;;;;;;;5.82;4.32;;;;;;;;;;5015166;28;20053;-69
2022/11/19 14:53:56;;;;;;;4.45;3.60;;;;;;;;;;5014884;28;20049;-68
2022/11/19 14:56:22;;;;;;;6.10;3.95;;;;;;;;;;5029852;28;20591;-68
2022/11/19 14:59:14;;;;;;;7.43;5.28;;;;;;;;;;5013527;28;20789;-67
2022/11/19 15:02:01;;;;;;;7.30;5.07;;;;;;;;;;5015430;28;20072;-68
2022/11/19 15:04:33;;;;;;;6.45;5.80;;;;;;;;;;5012823;28;20127;-68
2022/11/19 15:07:00;;;;;;;8.00;5.27;;;;;;;;;;4997116;28;20540;-67
2022/11/19 15:09:49;;;;;;;7.05;5.47;;;;;;;;;;5030903;28;20141;-68
2022/11/19 15:12:18;;;;;;;7.85;5.75;;;;;;;;;;5029920;28;20053;-67
2022/11/19 15:17:30;;;;;;;7.15;6.05;;;;;;;;;;5031276;28;20049;-68
2022/11/19 15:20:35;;;;;;;6.57;5.93;;;;;;;;;;5030741;28;20110;-69
2022/11/19 15:23:20;;;;;;;6.88;5.80;;;;;;;;;;5030523;28;20049;-68
2022/11/19 15:26:03;;;;;;;5.93;5.30;;;;;;;;;;5029432;28;20136;-69
2022/11/19 15:28:44;;;;;;;5.30;4.80;;;;;;;;;;5028601;28;20049;-68
2022/11/19 15:31:27;;;;;;;6.05;4.95;;;;;;;;;;4993938;28;20132;-67
2022/11/19 15:33:54;;;;;;;7.20;6.50;;;;;;;;;;5031457;28;20153;-68
2022/11/19 15:36:32;;;;;;;6.38;5.13;;;;;;;;;;5004761;28;20053;-67
2022/11/19 15:39:00;;;;;;;7.47;4.95;;;;;;;;;;4996928;28;20091;-66
2022/11/19 15:41:29;;;;;;;5.05;4.45;;;;;;;;;;5013903;28;20188;-67
2022/11/19 15:43:58;;;;;;;7.05;5.70;;;;;;;;;;5012114;28;20085;-67
2022/11/19 15:46:31;;;;;;;8.57;6.70;;;;;;;;;;5010684;28;20133;-66
2022/11/19 15:49:00;;;;;;;9.82;7.13;;;;;;;;;;5030331;28;20053;-67
2022/11/19 15:51:27;;;;;;;8.70;6.68;;;;;;;;;;5029514;28;20068;-68
2022/11/19 15:54:04;;;;;;;6.35;5.72;;;;;;;;;;5028672;28;20132;-68
2022/11/19 15:56:35;;;;;;;5.68;5.03;;;;;;;;;;5029802;28;20076;-67
2022/11/19 15:59:02;;;;;;;5.80;5.20;;;;;;;;;;5011311;28;20049;-68
2022/11/19 16:01:31;;;;;;;9.48;7.63;;;;;;;;;;5029281;28;20136;-67